Time;durP1;ratioP1;P1;durP2;ratioP2;P2;SDS_P1;SDS_P2;PMS_P1;PMS_P2;Temp;Humidity;BMP_temperature;BMP_pressure;BME280_temperature;BME280_humidity;BME280_pressure;Samples;Min_cycle;Max_cycle;Signal;HPM_P1;HPM_P2
2022/02/01 00:02:02;;;;;;;31.45;3.40;;;;;;;2.05;90.12;101776.25;5057488;28;20056;-69
2022/02/01 00:04:46;;;;;;;35.92;3.55;;;;;;;2.07;90.33;101791.53;5026631;28;20044;-69
2022/02/01 00:15:26;;;;;;;30.83;3.90;;;;;;;2.01;90.81;101792.66;5039853;28;20045;-70
2022/02/01 00:36:47;;;;;;;25.50;2.95;;;;;;;1.88;91.39;101828.25;5055205;28;20021;-69
2022/02/01 00:39:14;;;;;;;24.70;3.30;;;;;;;1.79;91.59;101833.00;5025153;28;20291;-69
2022/02/01 00:41:47;;;;;;;24.10;3.00;;;;;;;1.88;91.63;101842.78;5056682;28;20040;-70
2022/02/01 00:44:14;;;;;;;24.08;4.00;;;;;;;1.82;91.60;101833.69;5049841;28;20183;-70
2022/02/01 00:46:40;;;;;;;24.08;2.67;;;;;;;1.83;91.68;101816.59;5015540;28;20048;-69
2022/02/01 00:49:05;;;;;;;22.85;3.05;;;;;;;1.85;91.95;101822.50;5056821;28;20029;-70
2022/02/01 00:51:31;;;;;;;27.45;3.00;;;;;;;1.80;91.96;101829.53;5058806;28;20670;-69
2022/02/01 00:53:57;;;;;;;27.58;4.15;;;;;;;1.89;91.70;101839.34;5044046;28;20029;-70
2022/02/01 00:56:22;;;;;;;18.95;2.42;;;;;;;1.80;92.20;101835.47;5045021;28;20067;-70
2022/02/01 00:58:48;;;;;;;31.60;2.88;;;;;;;1.85;92.01;101828.44;5048906;28;20119;-69
2022/02/01 01:01:15;;;;;;;26.88;5.00;;;;;;;1.87;91.75;101828.34;5063234;28;20506;-69
2022/02/01 01:03:40;;;;;;;23.02;2.97;;;;;;;1.86;91.97;101829.25;5042106;28;20044;-69
2022/02/01 01:06:06;;;;;;;25.38;1.95;;;;;;;1.78;92.56;101823.69;5062514;28;20129;-69
2022/02/01 01:08:33;;;;;;;18.75;2.45;;;;;;;1.87;92.33;101828.34;5063801;28;20036;-70
2022/02/01 01:10:59;;;;;;;17.05;2.40;;;;;;;1.86;92.17;101824.13;5047127;28;20122;-69
2022/02/01 01:54:12;;;;;;;25.83;2.83;;;;;;;1.84;92.33;101819.06;5061261;28;20553;-69
2022/02/01 01:56:39;;;;;;;23.90;3.05;;;;;;;1.90;92.46;101828.19;5062481;28;20025;-70
2022/02/01 01:59:07;;;;;;;15.82;2.13;;;;;;;1.91;92.62;101834.97;5044391;28;20047;-69
2022/02/01 02:01:35;;;;;;;27.83;2.40;;;;;;;1.84;92.61;101852.34;5061563;28;20041;-69
2022/02/01 02:04:02;;;;;;;23.73;2.50;;;;;;;1.83;92.21;101849.84;5027783;28;20484;-69
2022/02/01 02:06:31;;;;;;;30.58;3.92;;;;;;;1.79;92.28;101840.66;5025806;28;20045;-69
2022/02/01 02:08:57;;;;;;;19.08;2.28;;;;;;;1.85;92.48;101855.75;5061154;28;20151;-70
2022/02/01 02:11:39;;;;;;;21.45;2.25;;;;;;;1.76;92.54;101849.31;5057926;28;20430;-70
2022/02/01 02:14:17;;;;;;;22.42;3.88;;;;;;;1.87;92.26;101872.66;5059250;28;20039;-70
2022/02/01 02:16:49;;;;;;;28.92;2.55;;;;;;;1.76;92.73;101882.56;5043390;28;20795;-70
2022/02/01 02:19:15;;;;;;;16.55;1.83;;;;;;;1.87;92.45;101880.34;5058502;28;20116;-70
2022/02/01 02:21:47;;;;;;;18.00;2.15;;;;;;;1.79;92.77;101863.69;5046210;28;20040;-69
2022/02/01 02:24:12;;;;;;;19.53;2.07;;;;;;;1.79;92.71;101838.97;5038284;28;20143;-70
2022/02/01 02:26:38;;;;;;;22.23;3.17;;;;;;;1.86;92.46;101836.91;5057888;28;20390;-70
2022/02/01 02:29:05;;;;;;;15.15;1.95;;;;;;;1.73;92.99;101841.78;5043682;28;20562;-69
2022/02/01 02:31:32;;;;;;;21.70;3.00;;;;;;;1.72;92.98;101846.09;5057207;28;20035;-69
2022/02/01 02:34:03;;;;;;;25.20;2.47;;;;;;;1.89;92.41;101857.25;5041526;28;20426;-70
2022/02/01 02:36:29;;;;;;;13.20;2.08;;;;;;;1.97;92.51;101872.22;5041850;28;20043;-69
2022/02/01 02:39:22;;;;;;;21.85;2.50;;;;;;;1.93;91.90;101861.31;5043335;28;20043;-69
2022/02/01 02:47:00;;;;;;;31.30;2.72;;;;;;;1.90;91.98;101856.31;5059411;28;20036;-70
2022/02/01 02:49:26;;;;;;;17.92;1.77;;;;;;;1.90;92.42;101853.75;5031153;28;20111;-70
2022/02/01 02:51:53;;;;;;;20.98;2.00;;;;;;;1.85;92.60;101853.19;5062671;28;20130;-70
2022/02/01 02:54:21;;;;;;;19.35;2.55;;;;;;;1.95;92.17;101850.09;5057898;28;20187;-69
2022/02/01 02:56:55;;;;;;;14.85;2.85;;;;;;;1.81;92.16;101851.66;5058124;28;20024;-70
2022/02/01 02:59:22;;;;;;;18.13;2.08;;;;;;;1.82;92.58;101853.31;5045050;28;20040;-70
2022/02/01 03:01:48;;;;;;;13.35;1.95;;;;;;;1.78;92.74;101839.03;5062575;28;20116;-69
2022/02/01 03:04:15;;;;;;;19.63;2.35;;;;;;;1.76;92.90;101836.53;5044038;28;20051;-70
2022/02/01 03:06:42;;;;;;;11.52;2.17;;;;;;;1.73;92.98;101842.63;5060383;28;20037;-69
2022/02/01 03:09:08;;;;;;;22.00;2.88;;;;;;;1.80;93.08;101838.03;5059972;28;20028;-69
2022/02/01 03:11:34;;;;;;;21.77;2.03;;;;;;;1.83;92.79;101837.06;5042292;28;20422;-70
2022/02/01 03:14:02;;;;;;;22.13;2.70;;;;;;;1.82;92.44;101832.84;5066192;28;20035;-70
2022/02/01 03:16:48;;;;;;;23.55;2.65;;;;;;;1.84;92.58;101831.06;5062960;28;20040;-69
2022/02/01 03:21:58;;;;;;;27.77;3.22;;;;;;;1.83;92.81;101827.66;5043336;28;21820;-69
2022/02/01 03:24:24;;;;;;;23.20;2.40;;;;;;;1.87;92.42;101844.53;5041427;28;20068;-70
2022/02/01 03:26:49;;;;;;;26.30;3.38;;;;;;;1.86;92.40;101832.63;5053679;28;20068;-69
2022/02/01 03:29:15;;;;;;;17.75;2.15;;;;;;;1.79;92.71;101833.00;5057096;28;20273;-70
2022/02/01 03:31:41;;;;;;;22.58;3.75;;;;;;;1.82;93.16;101825.19;5038931;28;20119;-70
2022/02/01 03:34:07;;;;;;;24.67;2.40;;;;;;;1.88;93.08;101825.69;5040702;28;20443;-70
2022/02/01 03:36:33;;;;;;;15.57;2.05;;;;;;;1.82;93.15;101823.44;5053665;28;20059;-70
2022/02/01 03:39:00;;;;;;;18.45;2.85;;;;;;;1.85;93.12;101819.94;5041485;28;20044;-70
2022/02/01 03:41:26;;;;;;;26.13;2.72;;;;;;;1.87;93.30;101815.56;5057352;28;20029;-70
2022/02/01 03:43:51;;;;;;;11.82;2.53;;;;;;;1.95;93.01;101823.69;5043463;28;20056;-70
2022/02/01 03:46:17;;;;;;;18.05;2.30;;;;;;;1.89;93.22;101812.03;5023989;28;20672;-70
2022/02/01 03:48:43;;;;;;;24.63;4.07;;;;;;;1.84;93.13;101808.84;5060524;28;20029;-70
2022/02/01 03:51:09;;;;;;;19.45;3.20;;;;;;;1.73;93.63;101804.28;5039392;28;20192;-70
2022/02/01 03:53:35;;;;;;;22.40;3.63;;;;;;;1.81;93.16;101803.91;5025401;28;20075;-69
2022/02/01 03:56:02;;;;;;;26.25;2.67;;;;;;;1.88;93.44;101792.44;5059163;28;20118;-70
2022/02/01 03:58:28;;;;;;;21.75;2.72;;;;;;;1.78;93.20;101781.03;5041034;28;20202;-70
2022/02/01 04:00:54;;;;;;;19.10;2.63;;;;;;;1.78;93.61;101788.69;5042802;28;20555;-69
2022/02/01 04:03:19;;;;;;;26.17;2.70;;;;;;;1.75;93.75;101789.69;5062217;28;20032;-70
2022/02/01 04:05:45;;;;;;;18.95;3.72;;;;;;;1.77;93.70;101781.91;5043149;28;20029;-69
2022/02/01 04:08:13;;;;;;;20.33;2.42;;;;;;;1.88;93.14;101786.50;5043072;28;20032;-69
2022/02/01 04:10:38;;;;;;;16.42;2.83;;;;;;;1.85;93.55;101786.69;5058595;28;20071;-70
2022/02/01 04:13:05;;;;;;;26.17;4.15;;;;;;;1.97;93.28;101796.28;5027044;28;20036;-70
2022/02/01 04:15:30;;;;;;;37.75;12.57;;;;;;;1.93;93.04;101794.78;5041897;28;20735;-69
2022/02/01 04:17:57;;;;;;;33.65;8.10;;;;;;;1.85;93.01;101791.78;5039055;28;20124;-69
2022/02/01 04:20:23;;;;;;;19.92;3.67;;;;;;;1.95;93.29;101790.41;5060336;28;20059;-70
2022/02/01 04:22:49;;;;;;;18.90;3.97;;;;;;;1.86;93.73;101791.69;5033259;28;21460;-70
2022/02/01 04:25:14;;;;;;;22.95;3.63;;;;;;;2.02;93.27;101785.84;5059941;28;20115;-69
2022/02/01 04:27:42;;;;;;;18.70;3.10;;;;;;;1.95;93.11;101777.63;5060179;28;20174;-69
2022/02/01 04:30:14;;;;;;;35.83;10.30;;;;;;;1.97;93.03;101780.13;5058393;28;20078;-69
2022/02/01 04:32:48;;;;;;;68.97;24.75;;;;;;;1.98;93.16;101782.59;5044330;28;20032;-69
2022/02/01 04:35:16;;;;;;;35.78;10.43;;;;;;;1.93;93.22;101769.22;5039892;28;20036;-70
2022/02/01 04:37:43;;;;;;;33.80;10.57;;;;;;;2.04;93.10;101766.94;5060817;28;20036;-69
2022/02/01 04:40:11;;;;;;;31.00;12.20;;;;;;;1.94;93.37;101766.59;5043444;28;20043;-70
2022/02/01 04:42:39;;;;;;;26.67;7.30;;;;;;;2.04;93.07;101755.88;5060257;28;20040;-70
2022/02/01 04:45:07;;;;;;;25.85;5.15;;;;;;;2.04;93.21;101759.28;5045866;28;20518;-69
2022/02/01 04:47:34;;;;;;;25.17;6.22;;;;;;;1.96;93.52;101753.72;5047485;28;20040;-70
2022/02/01 04:50:04;;;;;;;21.40;4.07;;;;;;;1.97;94.21;101764.78;5062593;28;20052;-70
2022/02/01 04:52:30;;;;;;;17.75;3.97;;;;;;;2.05;93.74;101766.03;5060371;28;20089;-70
2022/02/01 04:54:57;;;;;;;18.92;3.70;;;;;;;2.08;93.63;101755.66;5040790;28;20036;-69
2022/02/01 04:57:23;;;;;;;18.38;4.55;;;;;;;2.13;93.32;101771.59;5063282;28;20044;-70
2022/02/01 04:59:49;;;;;;;26.30;5.25;;;;;;;2.06;93.81;101769.44;5062669;28;20028;-69
2022/02/01 05:02:14;;;;;;;17.60;4.03;;;;;;;2.05;93.76;101765.19;5064428;28;20032;-71
2022/02/01 05:04:40;;;;;;;22.10;3.90;;;;;;;2.06;93.94;101770.25;5063681;28;20174;-70
2022/02/01 05:07:05;;;;;;;24.02;4.57;;;;;;;2.01;94.15;101769.66;5046768;28;20024;-69
2022/02/01 05:09:32;;;;;;;17.08;3.83;;;;;;;2.14;93.90;101780.91;5045392;28;20036;-69
2022/02/01 05:12:01;;;;;;;21.40;3.22;;;;;;;2.03;93.91;101774.69;5058357;28;20032;-70
2022/02/01 05:14:28;;;;;;;34.92;5.03;;;;;;;2.03;94.26;101767.84;5056641;28;20036;-70
2022/02/01 05:21:54;;;;;;;27.33;3.80;;;;;;;2.03;94.20;101759.34;5054335;28;20115;-70
2022/02/01 05:24:21;;;;;;;18.88;3.63;;;;;;;2.09;93.98;101759.88;5043328;28;20033;-70
2022/02/01 05:26:47;;;;;;;31.08;4.00;;;;;;;2.16;93.59;101754.44;5065424;28;20713;-69
2022/02/01 05:29:13;;;;;;;12.13;2.50;;;;;;;2.06;93.59;101752.34;5063014;28;20525;-70
2022/02/01 05:31:39;;;;;;;19.33;3.90;;;;;;;2.09;93.61;101746.22;5062385;28;20126;-69
2022/02/01 05:34:04;;;;;;;27.63;3.33;;;;;;;2.14;93.16;101736.59;5049632;28;20024;-69
2022/02/01 05:36:30;;;;;;;19.13;2.47;;;;;;;2.14;92.40;101736.59;5062903;28;20037;-70
2022/02/01 05:38:56;;;;;;;20.02;2.58;;;;;;;2.12;92.96;101738.41;5046878;28;20045;-70
2022/02/01 05:41:25;;;;;;;18.25;2.75;;;;;;;2.05;93.33;101735.31;5038971;28;20068;-69
2022/02/01 05:43:51;;;;;;;25.33;3.53;;;;;;;2.14;92.65;101724.63;5061779;28;20036;-70
2022/02/01 05:46:17;;;;;;;17.02;2.40;;;;;;;2.10;92.88;101691.59;5064899;28;20031;-70
2022/02/01 05:48:43;;;;;;;14.35;2.40;;;;;;;2.07;92.59;101692.59;5065792;28;20110;-70
2022/02/01 05:51:09;;;;;;;15.32;2.20;;;;;;;2.05;92.80;101691.00;5045037;28;20123;-70
2022/02/01 05:53:34;;;;;;;24.80;2.42;;;;;;;2.05;92.63;101691.00;5041241;28;20123;-70
2022/02/01 05:56:00;;;;;;;27.60;3.50;;;;;;;2.04;92.56;101681.69;5044773;28;20124;-70
2022/02/01 05:58:26;;;;;;;26.00;4.10;;;;;;;2.14;92.00;101685.41;5046833;28;20160;-70
2022/02/01 06:00:52;;;;;;;21.98;2.95;;;;;;;2.05;92.08;101684.16;5060722;28;20039;-69
2022/02/01 06:03:17;;;;;;;20.13;3.58;;;;;;;2.10;92.33;101679.63;5045021;28;20028;-70
2022/02/01 06:05:43;;;;;;;23.75;2.38;;;;;;;2.08;92.00;101670.38;5062816;28;20037;-69
2022/02/01 06:08:10;;;;;;;15.35;2.78;;;;;;;2.09;91.84;101667.75;5044105;28;20522;-70
2022/02/01 06:10:36;;;;;;;24.30;2.63;;;;;;;2.01;92.00;101663.94;5050870;28;20060;-70
2022/02/01 06:13:01;;;;;;;20.80;2.95;;;;;;;2.03;91.64;101670.59;5047724;28;20036;-70
2022/02/01 06:15:29;;;;;;;20.67;2.72;;;;;;;2.12;91.49;101664.19;5059958;28;20491;-70
2022/02/01 06:17:55;;;;;;;20.50;3.08;;;;;;;2.12;91.95;101665.00;5057282;28;20036;-70
2022/02/01 06:20:21;;;;;;;20.05;2.40;;;;;;;2.17;91.70;101654.56;5059534;28;20119;-70
2022/02/01 06:22:47;;;;;;;12.38;2.35;;;;;;;2.15;91.69;101656.38;5064846;28;20134;-70
2022/02/01 06:25:13;;;;;;;14.93;2.40;;;;;;;2.12;92.17;101648.84;5044040;28;20029;-70
2022/02/01 06:27:39;;;;;;;18.20;2.63;;;;;;;2.19;92.12;101637.38;5061065;28;20863;-69
2022/02/01 06:30:09;;;;;;;19.77;3.38;;;;;;;2.14;92.15;101647.84;5046986;28;20204;-69
2022/02/01 06:32:37;;;;;;;17.13;3.10;;;;;;;2.24;92.15;101648.22;5059301;28;20036;-70
2022/02/01 06:35:03;;;;;;;16.77;2.83;;;;;;;2.27;92.33;101657.44;5042613;28;20043;-70
2022/02/01 06:37:29;;;;;;;11.85;2.63;;;;;;;2.15;92.93;101653.81;5061036;28;20441;-70
2022/02/01 06:39:55;;;;;;;28.42;3.45;;;;;;;2.34;92.99;101640.88;5044519;28;20090;-69
2022/02/01 06:42:20;;;;;;;27.75;3.88;;;;;;;2.31;93.17;101644.41;5065529;28;20040;-70
2022/02/01 06:44:46;;;;;;;25.20;4.18;;;;;;;2.37;93.26;101643.25;5041630;28;20032;-70
2022/02/01 06:47:12;;;;;;;34.03;5.53;;;;;;;2.37;92.76;101634.75;5061986;28;20498;-69
2022/02/01 06:49:38;;;;;;;23.33;3.90;;;;;;;2.35;93.38;101624.59;5061026;28;20146;-70
2022/02/01 06:52:04;;;;;;;27.50;3.55;;;;;;;2.36;93.69;101625.44;5046553;28;20142;-70
2022/02/01 06:54:30;;;;;;;30.85;3.60;;;;;;;2.37;93.39;101630.44;5039911;28;20123;-70
2022/02/01 06:56:55;;;;;;;29.55;4.25;;;;;;;2.42;93.17;101615.66;5058832;28;20025;-69
2022/02/01 06:59:22;;;;;;;22.25;4.25;;;;;;;2.29;93.64;101617.25;5040237;28;20044;-69
2022/02/01 07:01:48;;;;;;;23.60;4.10;;;;;;;2.39;93.79;101603.03;5059067;28;20029;-69
2022/02/01 07:04:13;;;;;;;25.35;4.20;;;;;;;2.38;93.68;101601.38;5048292;28;20074;-69
2022/02/01 07:06:39;;;;;;;23.73;5.18;;;;;;;2.43;93.81;101613.94;5044533;28;20037;-69
2022/02/01 07:09:05;;;;;;;27.48;4.53;;;;;;;2.53;93.58;101604.84;5058366;28;20032;-69
2022/02/01 07:11:32;;;;;;;16.05;3.20;;;;;;;2.50;93.69;101597.31;5025180;28;20086;-69
2022/02/01 07:13:57;;;;;;;29.45;4.32;;;;;;;2.43;93.88;101604.53;5061026;28;20028;-70
2022/02/01 07:16:23;;;;;;;17.75;3.65;;;;;;;2.45;94.01;101617.22;5056580;28;20047;-70
2022/02/01 07:18:49;;;;;;;25.35;4.55;;;;;;;2.57;93.61;101614.00;5060417;28;20055;-69
2022/02/01 07:21:18;;;;;;;30.08;4.63;;;;;;;2.61;93.70;101619.78;5059858;28;20036;-69
2022/02/01 07:23:44;;;;;;;29.40;5.53;;;;;;;2.55;93.57;101622.69;5058805;28;20490;-70
2022/02/01 07:26:10;;;;;;;41.30;6.60;;;;;;;2.57;93.87;101616.56;5044049;28;20077;-69
2022/02/01 07:28:36;;;;;;;25.10;4.85;;;;;;;2.62;94.04;101614.59;5061073;28;20488;-70
2022/02/01 07:31:03;;;;;;;21.00;5.18;;;;;;;2.56;94.21;101606.41;5022297;28;20510;-69
2022/02/01 07:33:29;;;;;;;34.53;7.40;;;;;;;2.64;94.09;101607.66;5060336;28;20045;-69
2022/02/01 07:35:57;;;;;;;23.15;6.25;;;;;;;2.62;94.38;101621.44;5057698;28;20024;-69
2022/02/01 07:38:25;;;;;;;23.48;5.65;;;;;;;2.55;94.81;101607.34;5042197;28;20040;-69
2022/02/01 07:40:52;;;;;;;34.20;5.93;;;;;;;2.71;94.34;101601.28;5043514;28;20036;-70
2022/02/01 07:43:19;;;;;;;26.83;5.70;;;;;;;2.66;94.51;101605.00;5066544;28;20040;-69
2022/02/01 07:45:47;;;;;;;27.00;6.07;;;;;;;2.76;94.64;101603.56;5063264;28;20055;-69
2022/02/01 07:48:13;;;;;;;24.65;6.07;;;;;;;2.77;94.31;101601.81;5040763;28;20035;-69
2022/02/01 07:50:40;;;;;;;39.85;8.82;;;;;;;2.81;94.69;101606.72;5041598;28;20070;-70
2022/02/01 07:53:07;;;;;;;30.30;7.60;;;;;;;2.83;94.73;101602.31;5060318;28;20561;-70
2022/02/01 07:55:34;;;;;;;25.23;6.45;;;;;;;2.87;94.79;101596.09;5024839;28;20055;-69
2022/02/01 07:58:00;;;;;;;22.00;7.00;;;;;;;2.87;94.85;101580.75;5044958;28;20032;-69
2022/02/01 08:00:26;;;;;;;24.35;6.55;;;;;;;2.78;94.85;101576.13;5061045;28;20028;-69
2022/02/01 08:02:55;;;;;;;41.85;8.38;;;;;;;2.88;95.25;101573.88;5042628;28;20045;-69
2022/02/01 08:05:26;;;;;;;34.63;7.60;;;;;;;2.92;95.54;101555.69;5065367;28;20508;-69
2022/02/01 08:07:55;;;;;;;32.95;7.68;;;;;;;2.96;96.05;101560.63;5044075;28;20048;-69
2022/02/01 08:10:21;;;;;;;37.70;8.57;;;;;;;2.93;96.30;101562.44;5046810;28;20047;-70
2022/02/01 08:20:36;;;;;;;27.38;8.30;;;;;;;2.89;98.71;101555.03;5064674;28;20044;-70
2022/02/01 08:23:02;;;;;;;28.33;8.07;;;;;;;2.90;99.05;101562.66;5049564;28;20047;-70
2022/02/01 08:25:31;;;;;;;27.38;8.02;;;;;;;2.80;99.80;101553.00;5045130;28;20040;-70
2022/02/01 08:27:58;;;;;;;30.85;8.85;;;;;;;2.81;99.78;101546.97;5045038;28;20077;-70
2022/02/01 08:30:24;;;;;;;33.67;9.07;;;;;;;2.85;100.00;101549.25;5045153;28;20029;-70
2022/02/01 08:32:51;;;;;;;35.17;8.48;;;;;;;2.79;100.00;101541.94;5065889;28;20029;-70
2022/02/01 08:35:17;;;;;;;33.45;9.00;;;;;;;2.78;100.00;101547.97;5047013;28;20063;-70
2022/02/01 08:37:43;;;;;;;32.03;10.25;;;;;;;2.87;100.00;101537.19;5045502;28;20481;-70
2022/02/01 08:40:12;;;;;;;42.83;10.32;;;;;;;2.93;100.00;101530.88;5047958;28;20040;-70
2022/02/01 08:42:39;;;;;;;31.90;9.63;;;;;;;2.91;100.00;101532.72;5046837;28;20734;-68
2022/02/01 08:45:05;;;;;;;35.42;10.40;;;;;;;2.90;100.00;101537.03;5046062;28;20564;-68
2022/02/01 08:47:31;;;;;;;33.38;10.43;;;;;;;2.95;100.00;101535.94;5060440;28;20037;-69
2022/02/01 08:49:56;;;;;;;35.97;10.52;;;;;;;2.85;100.00;101527.94;5046095;28;20071;-69
2022/02/01 08:52:30;;;;;;;35.33;11.15;;;;;;;2.81;100.00;101519.63;5048636;28;20042;-68
2022/02/01 08:54:57;;;;;;;49.22;12.52;;;;;;;2.91;100.00;101518.16;5063210;28;20403;-69
2022/02/01 08:57:25;;;;;;;42.83;13.23;;;;;;;2.88;100.00;101508.09;5062636;28;20028;-69
2022/02/01 08:59:53;;;;;;;37.30;14.95;;;;;;;2.98;100.00;101494.75;5044148;28;20041;-68
2022/02/01 09:02:23;;;;;;;47.60;13.98;;;;;;;2.96;100.00;101492.28;5065292;28;20029;-69
2022/02/01 09:04:49;;;;;;;41.08;13.68;;;;;;;2.98;100.00;101495.56;5030488;28;20457;-69
2022/02/01 09:07:15;;;;;;;48.63;15.40;;;;;;;3.03;100.00;101479.91;5029475;28;20446;-69
2022/02/01 09:09:41;;;;;;;44.00;17.02;;;;;;;3.03;100.00;101467.97;5067108;28;20032;-69
2022/02/01 09:12:07;;;;;;;51.45;16.13;;;;;;;2.98;100.00;101466.59;5062424;28;20040;-69
2022/02/01 09:14:32;;;;;;;47.00;15.50;;;;;;;2.99;100.00;101460.53;5073739;28;20618;-69
2022/02/01 09:17:00;;;;;;;39.17;16.52;;;;;;;3.15;100.00;101451.03;5064858;28;20028;-69
2022/02/01 09:19:27;;;;;;;37.03;14.70;;;;;;;3.04;100.00;101451.66;5057678;28;20028;-68
2022/02/01 09:21:54;;;;;;;40.85;15.18;;;;;;;3.10;100.00;101448.72;5059779;28;20087;-68
2022/02/01 09:24:20;;;;;;;37.08;14.70;;;;;;;3.09;100.00;101436.84;5049699;28;20031;-68
2022/02/01 09:26:46;;;;;;;45.33;16.00;;;;;;;3.13;100.00;101427.22;5064717;28;20387;-69
2022/02/01 09:29:12;;;;;;;54.67;15.40;;;;;;;3.05;100.00;101429.41;5040566;28;20489;-68
2022/02/01 09:31:38;;;;;;;41.47;14.32;;;;;;;3.15;100.00;101424.56;5064229;28;20243;-68
2022/02/01 09:34:06;;;;;;;37.15;14.45;;;;;;;3.22;100.00;101418.13;5065306;28;20090;-68
2022/02/01 09:36:31;;;;;;;32.80;14.93;;;;;;;3.15;100.00;101401.50;5047762;28;20540;-69
2022/02/01 09:38:57;;;;;;;34.53;14.93;;;;;;;3.21;100.00;101396.81;5047252;28;20472;-69
2022/02/01 09:41:24;;;;;;;32.42;13.85;;;;;;;3.29;100.00;101386.09;5059393;28;20506;-69
2022/02/01 09:43:52;;;;;;;33.75;15.13;;;;;;;3.33;100.00;101379.03;5064677;28;20028;-69
2022/02/01 09:46:18;;;;;;;31.60;14.60;;;;;;;3.27;100.00;101365.66;5041610;28;20089;-68
2022/02/01 09:48:45;;;;;;;35.92;13.50;;;;;;;3.40;100.00;101359.78;5070636;28;20042;-69
2022/02/01 09:51:11;;;;;;;25.88;13.55;;;;;;;3.40;100.00;101346.97;5064259;28;20236;-68
2022/02/01 09:53:37;;;;;;;28.95;13.02;;;;;;;3.43;100.00;101347.63;5047383;28;20059;-69
2022/02/01 09:56:04;;;;;;;26.60;12.68;;;;;;;3.41;100.00;101341.75;5036310;28;20033;-68
2022/02/01 09:58:34;;;;;;;23.20;10.20;;;;;;;3.41;100.00;101330.66;5038674;28;20402;-69
2022/02/01 10:01:02;;;;;;;27.42;11.82;;;;;;;3.45;100.00;101338.09;5034374;28;20055;-68
2022/02/01 10:03:28;;;;;;;20.60;10.38;;;;;;;3.51;100.00;101326.63;5043012;28;20082;-69
2022/02/01 10:06:05;;;;;;;21.90;10.98;;;;;;;3.57;100.00;101326.22;5061861;28;20040;-69
2022/02/01 10:08:30;;;;;;;26.80;10.13;;;;;;;3.55;100.00;101320.38;5027352;28;20036;-69
2022/02/01 10:10:56;;;;;;;23.80;10.65;;;;;;;3.58;100.00;101302.22;5040774;28;20038;-68
2022/02/01 10:13:22;;;;;;;21.25;10.45;;;;;;;3.70;100.00;101277.53;5046681;28;20098;-68
2022/02/01 10:15:55;;;;;;;18.67;9.23;;;;;;;3.77;100.00;101270.22;5061243;28;20181;-68
2022/02/01 10:18:30;;;;;;;20.42;9.77;;;;;;;3.82;100.00;101268.19;5038416;28;20119;-68
2022/02/01 10:21:07;;;;;;;18.85;8.73;;;;;;;3.88;100.00;101267.78;5061822;28;20569;-69
2022/02/01 10:23:35;;;;;;;15.10;8.10;;;;;;;3.93;100.00;101262.38;5066425;28;20044;-68
2022/02/01 10:26:05;;;;;;;14.60;8.18;;;;;;;3.86;100.00;101280.75;5044656;28;20048;-68
2022/02/01 10:29:18;;;;;;;19.20;8.90;;;;;;;3.85;100.00;101278.28;5064082;28;20395;-68
2022/02/01 10:34:41;;;;;;;13.35;7.57;;;;;;;4.05;100.00;101259.81;5058349;28;20532;-69
2022/02/01 10:37:21;;;;;;;16.73;7.80;;;;;;;4.15;100.00;101265.16;5058419;28;20068;-68
2022/02/01 10:40:05;;;;;;;16.02;7.47;;;;;;;4.14;100.00;101254.97;5043632;28;20295;-69
2022/02/01 10:42:31;;;;;;;12.48;7.00;;;;;;;4.19;100.00;101253.75;5060753;28;20041;-69
2022/02/01 10:44:59;;;;;;;14.77;7.15;;;;;;;4.29;100.00;101233.41;5064107;28;20543;-68
2022/02/01 10:47:42;;;;;;;14.85;7.50;;;;;;;4.41;100.00;101232.56;5061668;28;20411;-69
2022/02/01 10:50:12;;;;;;;;;;;;;;;4.36;100.00;101221.78;5031351;28;20347;-68
2022/02/01 10:52:50;;;;;;;8.65;5.57;;;;;;;4.46;100.00;101235.66;5045904;28;20035;-69
2022/02/01 10:55:18;;;;;;;15.48;6.25;;;;;;;4.48;100.00;101232.97;5058987;28;20036;-69
2022/02/01 10:57:44;;;;;;;12.75;5.72;;;;;;;4.41;100.00;101224.06;5058048;28;20068;-68
2022/02/01 11:00:13;;;;;;;10.07;5.38;;;;;;;4.50;100.00;101246.50;5042814;28;20459;-69
2022/02/01 11:02:44;;;;;;;10.25;5.47;;;;;;;4.48;100.00;101230.38;5042497;28;20145;-69
2022/02/01 11:05:18;;;;;;;9.00;6.10;;;;;;;4.54;100.00;101216.31;5059126;28;20128;-68
2022/02/01 11:07:48;;;;;;;13.80;5.60;;;;;;;4.49;100.00;101212.31;5056183;28;20388;-68
2022/02/01 11:10:14;;;;;;;11.32;5.80;;;;;;;4.59;100.00;101209.09;5059684;28;20086;-68
2022/02/01 11:12:40;;;;;;;9.00;5.35;;;;;;;4.69;100.00;101202.41;5060588;28;20032;-68
2022/02/01 11:15:24;;;;;;;11.32;5.47;;;;;;;4.69;100.00;101192.13;5056983;28;20040;-68
2022/02/01 11:17:51;;;;;;;8.30;5.20;;;;;;;4.71;100.00;101156.03;5026854;28;20032;-68
2022/02/01 11:20:28;;;;;;;10.07;5.20;;;;;;;4.71;100.00;101158.59;5039828;28;20448;-68
2022/02/01 11:23:16;;;;;;;9.25;5.60;;;;;;;4.71;100.00;101151.75;5038249;28;20036;-68
2022/02/01 11:25:50;;;;;;;11.10;5.32;;;;;;;4.75;100.00;101154.91;5037230;28;20029;-69
2022/02/01 11:28:49;;;;;;;13.38;5.75;;;;;;;4.77;100.00;101163.34;5041609;28;20082;-68
2022/02/01 11:31:15;;;;;;;12.32;5.05;;;;;;;4.76;100.00;101156.53;5056830;28;20031;-68
2022/02/01 11:33:44;;;;;;;7.68;4.85;;;;;;;4.82;100.00;101150.94;5041900;28;20518;-68
2022/02/01 11:36:12;;;;;;;9.13;5.18;;;;;;;4.85;100.00;101132.75;5056035;28;20086;-68
2022/02/01 11:39:00;;;;;;;8.95;5.60;;;;;;;4.93;100.00;101127.88;5037467;28;20132;-69
2022/02/01 11:41:41;;;;;;;7.00;4.43;;;;;;;4.87;100.00;101130.91;5057768;28;20033;-69
2022/02/01 11:44:12;;;;;;;8.45;4.40;;;;;;;4.92;100.00;101125.44;5044466;28;20440;-68
2022/02/01 11:46:38;;;;;;;10.82;4.68;;;;;;;4.90;100.00;101135.81;5056600;28;20033;-69
2022/02/01 11:49:04;;;;;;;6.93;4.97;;;;;;;4.93;100.00;101127.06;5042068;28;20047;-69
2022/02/01 11:51:32;;;;;;;9.43;4.32;;;;;;;4.96;100.00;101122.53;5025455;28;20032;-69
2022/02/01 11:54:00;;;;;;;12.73;4.50;;;;;;;4.95;100.00;101108.03;5060841;28;20040;-69
2022/02/01 11:56:34;;;;;;;10.02;4.47;;;;;;;4.96;100.00;101107.09;5043826;28;20032;-69
2022/02/01 11:59:03;;;;;;;8.82;4.45;;;;;;;4.98;100.00;101097.53;5047506;28;20029;-69
2022/02/01 12:01:38;;;;;;;7.85;3.95;;;;;;;5.05;100.00;101092.78;5043094;28;20049;-69
2022/02/01 12:04:06;;;;;;;18.55;5.10;;;;;;;5.18;100.00;101090.94;5047914;28;20033;-69
2022/02/01 12:06:40;;;;;;;7.38;3.72;;;;;;;5.25;100.00;101092.13;5062576;28;20033;-69
2022/02/01 12:09:10;;;;;;;6.43;3.85;;;;;;;5.26;100.00;101095.50;5063568;28;20036;-69
2022/02/01 12:11:39;;;;;;;5.40;3.72;;;;;;;5.30;100.00;101086.63;5046015;28;20398;-69
2022/02/01 12:14:05;;;;;;;6.38;3.67;;;;;;;5.26;100.00;101083.44;5044474;28;20090;-69
2022/02/01 12:16:30;;;;;;;7.70;4.05;;;;;;;5.30;100.00;101075.53;5061177;28;20040;-69
2022/02/01 12:19:11;;;;;;;5.93;3.50;;;;;;;5.30;100.00;101068.63;5044782;28;20036;-69
2022/02/01 12:21:49;;;;;;;6.55;4.00;;;;;;;5.41;100.00;101070.38;5039544;28;20810;-69
2022/02/01 12:24:14;;;;;;;7.60;3.70;;;;;;;5.35;100.00;101061.38;5046292;28;20036;-69
2022/02/01 12:26:43;;;;;;;6.30;4.13;;;;;;;5.48;100.00;101061.25;5062403;28;20044;-69
2022/02/01 12:29:13;;;;;;;6.60;4.05;;;;;;;5.53;100.00;101058.34;5066572;28;20028;-68
2022/02/01 12:31:40;;;;;;;8.05;3.80;;;;;;;5.44;100.00;101054.72;5063816;28;20435;-69
2022/02/01 12:34:11;;;;;;;7.65;3.65;;;;;;;5.55;100.00;101052.13;5038001;28;20083;-69
2022/02/01 12:36:39;;;;;;;7.25;4.00;;;;;;;5.51;100.00;101045.59;5044533;28;20505;-69
2022/02/01 12:39:19;;;;;;;9.80;4.72;;;;;;;5.50;100.00;101046.56;5040926;28;20498;-69
2022/02/01 12:41:54;;;;;;;11.35;4.53;;;;;;;5.47;100.00;101036.47;5065097;28;20410;-69
2022/02/01 12:46:51;;;;;;;7.15;3.42;;;;;;;5.56;100.00;101022.09;5039446;28;20040;-69
2022/02/01 12:49:18;;;;;;;5.43;3.58;;;;;;;5.55;100.00;101015.31;5059757;28;20028;-67
2022/02/01 12:51:45;;;;;;;8.18;3.60;;;;;;;5.59;100.00;101012.38;5028979;28;20461;-69
2022/02/01 12:54:28;;;;;;;7.38;3.58;;;;;;;5.59;100.00;101009.81;5021092;28;20552;-69
2022/02/01 12:57:14;;;;;;;7.38;3.08;;;;;;;5.57;100.00;101003.97;5063139;28;20121;-69
2022/02/01 12:59:47;;;;;;;8.50;3.40;;;;;;;5.53;100.00;100983.75;5045116;28;20044;-69
2022/02/01 13:02:21;;;;;;;5.60;3.58;;;;;;;5.59;100.00;100991.78;5052042;28;20033;-69